| time (UTC) | temp F | wind direction | speed MPH | gust MPH | rain 1hr in | rain 24hr in | rain mn in | humidity % | barometer mb |
| 20260906211358 | 89 | 163 | 2.0 | 2.0 | 0.00 | 0.00 | 0.00 | 35 | 1021.4 |
| 20260906210853 | 89 | 126 | 4.0 | 7.0 | 0.00 | 0.00 | 0.00 | 36 | 1022.0 |
| 20260906210349 | 89 | 176 | 5.0 | 7.0 | 0.00 | 0.00 | 0.00 | 35 | 1021.9 |
| 20260906205843 | 88 | 174 | 4.0 | 6.0 | 0.00 | 0.00 | 0.00 | 35 | 1022.0 |
| 20260906205340 | 89 | 171 | 5.0 | 6.0 | 0.00 | 0.00 | 0.00 | 37 | 1022.0 |
| 20260906204835 | 89 | 120 | 3.0 | 5.0 | 0.00 | 0.00 | 0.00 | 36 | 1022.0 |
| 20260906204334 | 89 | 199 | 7.0 | 8.0 | 0.00 | 0.00 | 0.00 | 36 | 1022.1 |
| 20260906203833 | 89 | 210 | 3.0 | 3.0 | 0.00 | 0.00 | 0.00 | 35 | 1022.2 |
| 20260906203329 | 89 | 198 | 4.0 | 6.0 | 0.00 | 0.00 | 0.00 | 39 | 1022.1 |
| 20260906202826 | 89 | 176 | 3.0 | 5.0 | 0.00 | 0.00 | 0.00 | 40 | 1022.3 |
| 20260906202326 | 88 | 181 | 5.0 | 7.0 | 0.00 | 0.00 | 0.00 | 38 | 1022.2 |
| 20260906201820 | 88 | 152 | 5.0 | 6.0 | 0.00 | 0.00 | 0.00 | 39 | 1022.2 |
| 20260906201320 | 88 | 99 | 3.0 | 3.0 | 0.00 | 0.00 | 0.00 | 38 | 1022.2 |
| 20260906200816 | 88 | 162 | 3.0 | 3.0 | 0.00 | 0.00 | 0.00 | 36 | 1022.4 |
| 20260906200312 | 88 | 195 | 4.0 | 6.0 | 0.00 | 0.00 | 0.00 | 38 | 1022.2 |
| 20260906195807 | 88 | 96 | 4.0 | 7.0 | 0.00 | 0.00 | 0.00 | 39 | 1022.6 |
| 20260906195306 | 87 | 191 | 4.0 | 5.0 | 0.00 | 0.00 | 0.00 | 40 | 1022.7 |
| 20260906194758 | 87 | 137 | 3.0 | 5.0 | 0.00 | 0.00 | 0.00 | 41 | 1022.7 |
| 20260906194249 | 87 | 129 | 3.0 | 5.0 | 0.00 | 0.00 | 0.00 | 39 | 1022.7 |
| 20260906193749 | 88 | 175 | 2.0 | 5.0 | 0.00 | 0.00 | 0.00 | 42 | 1022.7 |
| 20260906193243 | 87 | 81 | 6.0 | 7.0 | 0.00 | 0.00 | 0.00 | 39 | 1022.9 |
| 20260906192740 | 88 | 117 | 4.0 | 6.0 | 0.00 | 0.00 | 0.00 | 40 | 1022.9 |
| 20260906192234 | 87 | 137 | 5.0 | 7.0 | 0.00 | 0.00 | 0.00 | 40 | 1022.9 |
| 20260906191733 | 87 | 109 | 2.0 | 2.0 | 0.00 | 0.00 | 0.00 | 39 | 1022.9 |
| 20260906191228 | 87 | 121 | 3.0 | 6.0 | 0.00 | 0.00 | 0.00 | 41 | 1023.3 |
| 20260906190728 | 87 | 140 | 2.0 | 3.0 | 0.00 | 0.00 | 0.00 | 41 | 1023.3 |
| 20260906190222 | 88 | 167 | 5.0 | 6.0 | 0.00 | 0.00 | 0.00 | 39 | 1023.2 |
| 20260906185721 | 87 | 103 | 3.0 | 3.0 | 0.00 | 0.00 | 0.00 | 41 | 1023.4 |
| 20260906185221 | 86 | 135 | 3.0 | 3.0 | 0.00 | 0.00 | 0.00 | 42 | 1023.4 |
| 20260906184715 | 86 | 161 | 3.0 | 3.0 | 0.00 | 0.00 | 0.00 | 40 | 1023.8 |
| 20260906184211 | 87 | 193 | 7.0 | 9.0 | 0.00 | 0.00 | 0.00 | 40 | 1023.5 |
| 20260906183707 | 86 | 199 | 5.0 | 6.0 | 0.00 | 0.00 | 0.00 | 42 | 1024.0 |
| 20260906183203 | 87 | 149 | 2.0 | 2.0 | 0.00 | 0.00 | 0.00 | 41 | 1023.9 |
| 20260906182702 | 87 | 114 | 8.0 | 10.0 | 0.00 | 0.00 | 0.00 | 40 | 1023.9 |
| 20260906182158 | 86 | 139 | 4.0 | 5.0 | 0.00 | 0.00 | 0.00 | 40 | 1023.8 |
| 20260906181653 | 86 | 158 | 5.0 | 7.0 | 0.00 | 0.00 | 0.00 | 41 | 1023.9 |
| 20260906181150 | 86 | 99 | 4.0 | 6.0 | 0.00 | 0.00 | 0.00 | 40 | 1024.0 |
| 20260906180650 | 86 | 64 | 3.0 | 5.0 | 0.00 | 0.00 | 0.00 | 41 | 1024.0 |
| 20260906180145 | 86 | 66 | 0.0 | 1.0 | 0.00 | 0.00 | 0.00 | 40 | 1024.5 |
| 20260906175643 | 85 | 104 | 1.0 | 2.0 | 0.00 | 0.00 | 0.00 | 38 | 1024.6 |
| 20260906175138 | 85 | 150 | 3.0 | 5.0 | 0.00 | 0.00 | 0.00 | 39 | 1024.7 |
| 20260906174636 | 85 | 105 | 3.0 | 5.0 | 0.00 | 0.00 | 0.00 | 39 | 1024.6 |
| 20260906174131 | 85 | 153 | 5.0 | 6.0 | 0.00 | 0.00 | 0.00 | 40 | 1024.6 |
| 20260906173626 | 85 | 129 | 2.0 | 2.0 | 0.00 | 0.00 | 0.00 | 41 | 1024.9 |
| 20260906173122 | 86 | 186 | 1.0 | 1.0 | 0.00 | 0.00 | 0.00 | 41 | 1024.8 |
| 20260906172621 | 85 | 158 | 3.0 | 5.0 | 0.00 | 0.00 | 0.00 | 41 | 1024.8 |
| 20260906172117 | 84 | 56 | 1.0 | 1.0 | 0.00 | 0.00 | 0.00 | 40 | 1025.1 |
| 20260906171616 | 85 | 166 | 1.0 | 2.0 | 0.00 | 0.00 | 0.00 | 40 | 1025.1 |
| 20260906171112 | 87 | 54 | 4.0 | 6.0 | 0.00 | 0.00 | 0.00 | 37 | 1024.8 |
| 20260906170609 | 85 | 21 | 2.0 | 2.0 | 0.00 | 0.00 | 0.00 | 38 | 1024.9 |
| 20260906170108 | 85 | 63 | 3.0 | 5.0 | 0.00 | 0.00 | 0.00 | 38 | 1025.1 |
| 20260906165604 | 84 | 55 | 0.0 | 1.0 | 0.00 | 0.00 | 0.00 | 41 | 1025.1 |
| 20260906165059 | 85 | 174 | 0.0 | 1.0 | 0.00 | 0.00 | 0.00 | 43 | 1025.2 |
| 20260906164558 | 82 | 177 | 2.0 | 2.0 | 0.00 | 0.00 | 0.00 | 40 | 1025.3 |
| 20260906164054 | 83 | 104 | 2.0 | 3.0 | 0.00 | 0.00 | 0.00 | 41 | 1025.3 |
| 20260906163549 | 83 | 46 | 3.0 | 5.0 | 0.00 | 0.00 | 0.00 | 40 | 1024.9 |
| 20260906163045 | 83 | 65 | 3.0 | 3.0 | 0.00 | 0.00 | 0.00 | 41 | 1024.9 |
| 20260906162542 | 83 | 96 | 2.0 | 2.0 | 0.00 | 0.00 | 0.00 | 40 | 1025.3 |
| 20260906162037 | 82 | 141 | 2.0 | 3.0 | 0.00 | 0.00 | 0.00 | 40 | 1025.2 |
| 20260906161532 | 82 | 53 | 2.0 | 2.0 | 0.00 | 0.00 | 0.00 | 42 | 1025.3 |
| 20260906161031 | 82 | 194 | 3.0 | 5.0 | 0.00 | 0.00 | 0.00 | 42 | 1025.3 |
| 20260906160531 | 82 | 46 | 1.0 | 1.0 | 0.00 | 0.00 | 0.00 | 42 | 1025.3 |
| 20260906160029 | 81 | 316 | 1.0 | 1.0 | 0.00 | 0.00 | 0.00 | 42 | 1025.2 |
| 20260906155526 | 81 | 74 | 2.0 | 2.0 | 0.00 | 0.00 | 0.00 | 41 | 1025.3 |
| 20260906155023 | 80 | 71 | 0.0 | 1.0 | 0.00 | 0.00 | 0.00 | 42 | 1024.9 |
| 20260906154518 | 80 | 179 | 3.0 | 3.0 | 0.00 | 0.00 | 0.00 | 43 | 1025.3 |
| 20260906154016 | 80 | 72 | 0.0 | 1.0 | 0.00 | 0.00 | 0.00 | 42 | 1025.1 |
| 20260906153515 | 80 | 347 | 2.0 | 3.0 | 0.00 | 0.00 | 0.00 | 41 | 1025.1 |
| 20260906153012 | 80 | 115 | 0.0 | 0.0 | 0.00 | 0.00 | 0.00 | 43 | 1025.1 |
| 20260906152511 | 80 | 128 | 0.0 | 0.0 | 0.00 | 0.00 | 0.00 | 43 | 1025.1 |
| 20260906152010 | 80 | 149 | 1.0 | 2.0 | 0.00 | 0.00 | 0.00 | 42 | 1025.3 |
| 20260906151506 | 79 | 188 | 1.0 | 2.0 | 0.00 | 0.00 | 0.00 | 44 | 1025.2 |
| 20260906151001 | 79 | 194 | 1.0 | 1.0 | 0.00 | 0.00 | 0.00 | 44 | 1025.2 |
| 20260906150456 | 79 | 139 | 1.0 | 2.0 | 0.00 | 0.00 | 0.00 | 43 | 1025.2 |
| 20260906145955 | 79 | 116 | 1.0 | 2.0 | 0.00 | 0.00 | 0.00 | 44 | 1025.2 |
| 20260906145450 | 78 | 181 | 2.0 | 2.0 | 0.00 | 0.00 | 0.00 | 45 | 1025.1 |
| 20260906144949 | 77 | 14 | 1.0 | 1.0 | 0.00 | 0.00 | 0.00 | 46 | 1025.1 |
| 20260906144444 | 76 | 134 | 0.0 | 1.0 | 0.00 | 0.00 | 0.00 | 48 | 1025.1 |
| 20260906143940 | 76 | 140 | 1.0 | 1.0 | 0.00 | 0.00 | 0.00 | 48 | 1025.2 |
| 20260906143435 | 75 | 179 | 0.0 | 1.0 | 0.00 | 0.00 | 0.00 | 51 | 1025.3 |
| 20260906142931 | 75 | 63 | 0.0 | 1.0 | 0.00 | 0.00 | 0.00 | 52 | 1025.2 |
| 20260906142431 | 75 | 96 | 0.0 | 0.0 | 0.00 | 0.00 | 0.00 | 49 | 1025.1 |
| 20260906141926 | 75 | 155 | 0.0 | 0.0 | 0.00 | 0.00 | 0.00 | 51 | 1025.1 |
| 20260906141426 | 74 | 83 | 1.0 | 1.0 | 0.00 | 0.00 | 0.00 | 51 | 1025.2 |
| 20260906140920 | 73 | 81 | 0.0 | 0.0 | 0.00 | 0.00 | 0.00 | 52 | 1024.9 |
| 20260906140415 | 72 | 87 | 0.0 | 1.0 | 0.00 | 0.00 | 0.00 | 54 | 1024.9 |
| 20260906135913 | 71 | 32 | 0.0 | 0.0 | 0.00 | 0.00 | 0.00 | 55 | 1024.9 |
| 20260906135412 | 69 | 323 | 1.0 | 1.0 | 0.00 | 0.00 | 0.00 | 58 | 1024.9 |
| 20260906134908 | 69 | 288 | 2.0 | 2.0 | 0.00 | 0.00 | 0.00 | 59 | 1024.8 |
| 20260906134403 | 68 | 342 | 3.0 | 5.0 | 0.00 | 0.00 | 0.00 | 60 | 1024.7 |
| 20260906133858 | 67 | 343 | 2.0 | 3.0 | 0.00 | 0.00 | 0.00 | 62 | 1024.7 |
| 20260906133354 | 67 | 304 | 2.0 | 2.0 | 0.00 | 0.00 | 0.00 | 66 | 1024.8 |
| 20260906132849 | 65 | 316 | 0.0 | 1.0 | 0.00 | 0.00 | 0.00 | 71 | 1024.7 |
| 20260906132344 | 64 | 309 | 2.0 | 2.0 | 0.00 | 0.00 | 0.00 | 73 | 1024.3 |
| 20260906131840 | 63 | 312 | 2.0 | 2.0 | 0.00 | 0.00 | 0.00 | 76 | 1024.5 |
| 20260906131335 | 62 | 305 | 2.0 | 2.0 | 0.00 | 0.00 | 0.00 | 78 | 1024.3 |
| 20260906130831 | 61 | 45 | 2.0 | 2.0 | 0.00 | 0.00 | 0.00 | 78 | 1024.0 |
| 20260906130330 | 61 | 39 | 1.0 | 1.0 | 0.00 | 0.00 | 0.00 | 78 | 1024.1 |
| 20260906125829 | 61 | 350 | 1.0 | 1.0 | 0.00 | 0.00 | 0.00 | 78 | 1024.5 |
| 20260906125326 | 62 | 340 | 1.0 | 1.0 | 0.00 | 0.00 | 0.00 | 76 | 1024.3 |
| 20260906124821 | 62 | 329 | 1.0 | 2.0 | 0.00 | 0.00 | 0.00 | 77 | 1024.3 |
| 20260906124318 | 61 | 323 | 3.0 | 3.0 | 0.00 | 0.00 | 0.00 | 77 | 1024.1 |
| 20260906123816 | 61 | 299 | 2.0 | 2.0 | 0.00 | 0.00 | 0.00 | 78 | 1024.3 |
| 20260906123312 | 61 | 331 | 2.0 | 2.0 | 0.00 | 0.00 | 0.00 | 78 | 1024.5 |
| 20260906122811 | 61 | 294 | 2.0 | 2.0 | 0.00 | 0.00 | 0.00 | 78 | 1024.5 |
| 20260906122306 | 61 | 308 | 2.0 | 2.0 | 0.00 | 0.00 | 0.00 | 77 | 1024.5 |
| 20260906121803 | 61 | 297 | 2.0 | 2.0 | 0.00 | 0.00 | 0.00 | 77 | 1024.1 |
| 20260906121259 | 61 | 288 | 3.0 | 3.0 | 0.00 | 0.00 | 0.00 | 77 | 1024.3 |
| 20260906120755 | 61 | 324 | 2.0 | 2.0 | 0.00 | 0.00 | 0.00 | 77 | 1024.2 |
| 20260906120251 | 62 | 349 | 2.0 | 2.0 | 0.00 | 0.00 | 0.00 | 77 | 1024.1 |
| 20260906115747 | 62 | 324 | 4.0 | 5.0 | 0.00 | 0.00 | 0.00 | 77 | 1024.0 |
| 20260906115242 | 61 | 328 | 4.0 | 5.0 | 0.00 | 0.00 | 0.00 | 77 | 1024.1 |
| 20260906114741 | 62 | 315 | 3.0 | 3.0 | 0.00 | 0.00 | 0.00 | 77 | 1024.3 |
| 20260906114236 | 62 | 335 | 4.0 | 5.0 | 0.00 | 0.00 | 0.00 | 76 | 1024.1 |
| 20260906113732 | 62 | 296 | 2.0 | 2.0 | 0.00 | 0.00 | 0.00 | 75 | 1024.2 |
| 20260906113231 | 62 | 320 | 2.0 | 2.0 | 0.00 | 0.00 | 0.00 | 76 | 1024.0 |
| 20260906112730 | 62 | 314 | 2.0 | 2.0 | 0.00 | 0.00 | 0.00 | 75 | 1024.0 |
| 20260906112227 | 62 | 311 | 2.0 | 2.0 | 0.00 | 0.00 | 0.00 | 75 | 1024.1 |
| 20260906111726 | 62 | 345 | 3.0 | 3.0 | 0.00 | 0.00 | 0.00 | 76 | 1023.9 |
| 20260906111221 | 62 | 318 | 3.0 | 3.0 | 0.00 | 0.00 | 0.00 | 76 | 1024.2 |
| 20260906110716 | 62 | 312 | 2.0 | 2.0 | 0.00 | 0.00 | 0.00 | 76 | 1024.1 |
| 20260906110212 | 62 | 317 | 0.0 | 0.0 | 0.00 | 0.00 | 0.00 | 75 | 1023.9 |
| 20260906105711 | 63 | 324 | 1.0 | 1.0 | 0.00 | 0.00 | 0.00 | 75 | 1024.3 |
| 20260906105208 | 63 | 357 | 0.0 | 0.0 | 0.00 | 0.00 | 0.00 | 74 | 1024.2 |
| 20260906104707 | 64 | 338 | 1.0 | 1.0 | 0.00 | 0.00 | 0.00 | 73 | 1024.2 |
| 20260906104206 | 64 | 309 | 0.0 | 0.0 | 0.00 | 0.00 | 0.00 | 73 | 1024.2 |
| 20260906103704 | 64 | 321 | 1.0 | 1.0 | 0.00 | 0.00 | 0.00 | 73 | 1024.0 |
| 20260906103159 | 64 | 328 | 2.0 | 2.0 | 0.00 | 0.00 | 0.00 | 73 | 1024.0 |
| 20260906102654 | 64 | 320 | 1.0 | 2.0 | 0.00 | 0.00 | 0.00 | 73 | 1023.8 |
| 20260906102154 | 64 | 309 | 2.0 | 2.0 | 0.00 | 0.00 | 0.00 | 72 | 1023.9 |
| 20260906101654 | 65 | 316 | 3.0 | 3.0 | 0.00 | 0.00 | 0.00 | 72 | 1023.8 |
| 20260906101149 | 65 | 306 | 2.0 | 2.0 | 0.00 | 0.00 | 0.00 | 71 | 1023.9 |
| 20260906100645 | 65 | 338 | 3.0 | 3.0 | 0.00 | 0.00 | 0.00 | 71 | 1023.8 |
| 20260906100145 | 65 | 336 | 3.0 | 3.0 | 0.00 | 0.00 | 0.00 | 71 | 1024.0 |
| 20260906095640 | 65 | 319 | 3.0 | 5.0 | 0.00 | 0.00 | 0.00 | 71 | 1024.0 |
| 20260906095135 | 65 | 351 | 3.0 | 5.0 | 0.00 | 0.00 | 0.00 | 71 | 1023.9 |
| 20260906094634 | 65 | 289 | 2.0 | 2.0 | 0.00 | 0.00 | 0.00 | 71 | 1024.1 |
| 20260906094130 | 65 | 312 | 3.0 | 5.0 | 0.00 | 0.00 | 0.00 | 71 | 1024.2 |
| 20260906093626 | 65 | 276 | 3.0 | 3.0 | 0.00 | 0.00 | 0.00 | 70 | 1024.0 |
| 20260906093126 | 65 | 341 | 4.0 | 5.0 | 0.00 | 0.00 | 0.00 | 71 | 1024.2 |
| 20260906092621 | 65 | 342 | 3.0 | 3.0 | 0.00 | 0.00 | 0.00 | 71 | 1023.9 |
| 20260906092116 | 65 | 307 | 2.0 | 2.0 | 0.00 | 0.00 | 0.00 | 71 | 1024.1 |
| 20260906091612 | 65 | 326 | 3.0 | 5.0 | 0.00 | 0.00 | 0.00 | 72 | 1024.0 |
| 20260906091109 | 64 | 318 | 3.0 | 3.0 | 0.00 | 0.00 | 0.00 | 73 | 1024.0 |
| 20260906090609 | 64 | 11 | 0.0 | 1.0 | 0.00 | 0.00 | 0.00 | 72 | 1024.2 |
| 20260906090108 | 64 | 311 | 2.0 | 2.0 | 0.00 | 0.00 | 0.00 | 72 | 1024.0 |
| 20260906085608 | 64 | 327 | 1.0 | 1.0 | 0.00 | 0.00 | 0.00 | 71 | 1024.1 |
| 20260906085102 | 64 | 309 | 2.0 | 2.0 | 0.00 | 0.00 | 0.00 | 72 | 1024.2 |
| 20260906084557 | 63 | 288 | 1.0 | 2.0 | 0.00 | 0.00 | 0.00 | 74 | 1024.2 |
| 20260906084055 | 62 | 305 | 3.0 | 3.0 | 0.00 | 0.00 | 0.00 | 75 | 1024.0 |
| 20260906083551 | 62 | 237 | 1.0 | 1.0 | 0.00 | 0.00 | 0.00 | 74 | 1024.1 |
| 20260906083051 | 63 | 184 | 1.0 | 1.0 | 0.00 | 0.00 | 0.00 | 74 | 1024.2 |
| 20260906082546 | 65 | 356 | 2.0 | 2.0 | 0.00 | 0.00 | 0.00 | 71 | 1024.1 |
| 20260906082042 | 65 | 325 | 4.0 | 5.0 | 0.00 | 0.00 | 0.00 | 71 | 1024.0 |
| 20260906081538 | 65 | 328 | 3.0 | 5.0 | 0.00 | 0.00 | 0.00 | 71 | 1023.9 |
| 20260906081034 | 65 | 327 | 2.0 | 3.0 | 0.00 | 0.00 | 0.00 | 71 | 1023.8 |
| 20260906080530 | 65 | 314 | 1.0 | 2.0 | 0.00 | 0.00 | 0.00 | 71 | 1024.0 |
| 20260906080026 | 66 | 8 | 1.0 | 2.0 | 0.00 | 0.00 | 0.00 | 69 | 1023.9 |
| 20260906075525 | 66 | 318 | 4.0 | 5.0 | 0.00 | 0.00 | 0.00 | 69 | 1023.9 |
| 20260906075020 | 66 | 309 | 4.0 | 5.0 | 0.00 | 0.00 | 0.00 | 70 | 1023.9 |
| 20260906074515 | 65 | 327 | 5.0 | 6.0 | 0.00 | 0.00 | 0.00 | 70 | 1024.0 |
| 20260906074013 | 65 | 307 | 5.0 | 6.0 | 0.00 | 0.00 | 0.00 | 70 | 1023.5 |
| 20260906073508 | 65 | 311 | 4.0 | 5.0 | 0.00 | 0.00 | 0.00 | 71 | 1023.8 |
| 20260906073005 | 65 | 322 | 2.0 | 2.0 | 0.00 | 0.00 | 0.00 | 70 | 1023.8 |
| 20260906072459 | 66 | 315 | 2.0 | 2.0 | 0.00 | 0.00 | 0.00 | 69 | 1023.9 |
| 20260906071955 | 66 | 342 | 3.0 | 5.0 | 0.00 | 0.00 | 0.00 | 69 | 1024.0 |
| 20260906071451 | 65 | 322 | 4.0 | 6.0 | 0.00 | 0.00 | 0.00 | 70 | 1023.9 |
| 20260906070946 | 65 | 334 | 3.0 | 3.0 | 0.00 | 0.00 | 0.00 | 70 | 1024.0 |
| 20260906070443 | 66 | 322 | 1.0 | 1.0 | 0.00 | 0.00 | 0.00 | 68 | 1023.9 |
| 20260906065938 | 67 | 351 | 2.0 | 2.0 | 0.00 | 0.00 | 0.00 | 68 | 1023.9 |
| 20260906065438 | 67 | 304 | 2.0 | 2.0 | 0.00 | 0.00 | 0.00 | 68 | 1023.9 |
| 20260906064933 | 67 | 299 | 2.0 | 3.0 | 0.00 | 0.00 | 0.00 | 68 | 1023.6 |
| 20260906064430 | 67 | 321 | 3.0 | 3.0 | 0.00 | 0.00 | 0.00 | 68 | 1023.8 |
| 20260906063930 | 67 | 321 | 2.0 | 2.0 | 0.00 | 0.00 | 0.00 | 68 | 1024.0 |
| 20260906063426 | 67 | 321 | 3.0 | 3.0 | 0.00 | 0.00 | 0.00 | 67 | 1024.1 |
| 20260906062920 | 67 | 292 | 2.0 | 2.0 | 0.00 | 0.00 | 0.00 | 67 | 1024.2 |
| 20260906062421 | 68 | 327 | 3.0 | 3.0 | 0.00 | 0.00 | 0.00 | 67 | 1024.0 |
| 20260906061916 | 68 | 337 | 1.0 | 2.0 | 0.00 | 0.00 | 0.00 | 66 | 1024.0 |
| 20260906061412 | 68 | 294 | 1.0 | 1.0 | 0.00 | 0.00 | 0.00 | 66 | 1024.1 |
| 20260906060912 | 68 | 320 | 2.0 | 2.0 | 0.00 | 0.00 | 0.00 | 67 | 1024.2 |
| 20260906060410 | 67 | 309 | 1.0 | 1.0 | 0.00 | 0.00 | 0.00 | 67 | 1024.2 |
| 20260906055906 | 68 | 323 | 1.0 | 1.0 | 0.00 | 0.00 | 0.00 | 67 | 1024.0 |
| 20260906055401 | 68 | 340 | 2.0 | 2.0 | 0.00 | 0.00 | 0.00 | 67 | 1024.2 |
| 20260906054856 | 67 | 327 | 0.0 | 0.0 | 0.00 | 0.00 | 0.00 | 67 | 1024.1 |
| 20260906054351 | 68 | 321 | 0.0 | 0.0 | 0.00 | 0.00 | 0.00 | 67 | 1024.0 |
| 20260906053847 | 68 | 321 | 2.0 | 2.0 | 0.00 | 0.00 | 0.00 | 66 | 1024.0 |
| 20260906053343 | 68 | 32 | 1.0 | 1.0 | 0.00 | 0.00 | 0.00 | 66 | 1024.0 |
| 20260906052838 | 68 | 290 | 1.0 | 1.0 | 0.00 | 0.00 | 0.00 | 67 | 1024.2 |
| 20260906052334 | 67 | 328 | 1.0 | 1.0 | 0.00 | 0.00 | 0.00 | 67 | 1024.3 |
| 20260906051831 | 68 | 5 | 2.0 | 2.0 | 0.00 | 0.00 | 0.00 | 66 | 1024.0 |
| 20260906051330 | 70 | 43 | 2.0 | 2.0 | 0.00 | 0.00 | 0.00 | 63 | 1024.3 |
| 20260906050826 | 70 | 332 | 1.0 | 1.0 | 0.00 | 0.00 | 0.00 | 62 | 1024.1 |
| 20260906050321 | 70 | 337 | 1.0 | 2.0 | 0.00 | 0.00 | 0.00 | 62 | 1023.9 |
| 20260906045820 | 69 | 314 | 1.0 | 1.0 | 0.00 | 0.00 | 0.00 | 64 | 1024.0 |
| 20260906045315 | 69 | 309 | 2.0 | 2.0 | 0.00 | 0.00 | 0.00 | 65 | 1024.2 |
| 20260906044811 | 69 | 3 | 3.0 | 3.0 | 0.00 | 0.00 | 0.00 | 64 | 1024.0 |
| 20260906044311 | 70 | 296 | 0.0 | 1.0 | 0.00 | 0.00 | 0.00 | 63 | 1024.1 |
| 20260906043807 | 71 | 272 | 0.0 | 0.0 | 0.00 | 0.00 | 0.00 | 62 | 1024.1 |
| 20260906043303 | 71 | 270 | 1.0 | 1.0 | 0.00 | 0.00 | 0.00 | 62 | 1023.9 |
| 20260906042803 | 72 | 233 | 0.0 | 0.0 | 0.00 | 0.00 | 0.00 | 60 | 1024.0 |
| 20260906042306 | 73 | 141 | 1.0 | 1.0 | 0.00 | 0.00 | 0.00 | 59 | 1024.1 |
| 20260906041758 | 73 | 216 | 3.0 | 3.0 | 0.00 | 0.00 | 0.00 | 59 | 1024.0 |
| 20260906041253 | 73 | 289 | 0.0 | 0.0 | 0.00 | 0.00 | 0.00 | 58 | 1024.0 |
| 20260906040748 | 74 | 38 | 1.0 | 1.0 | 0.00 | 0.00 | 0.00 | 57 | 1023.6 |
| 20260906040243 | 74 | 69 | 1.0 | 1.0 | 0.00 | 0.00 | 0.00 | 56 | 1023.9 |
| 20260906035738 | 74 | 319 | 3.0 | 3.0 | 0.00 | 0.00 | 0.00 | 58 | 1024.0 |
| 20260906035234 | 73 | 272 | 2.0 | 2.0 | 0.00 | 0.00 | 0.00 | 58 | 1023.8 |
| 20260906034734 | 73 | 270 | 1.0 | 2.0 | 0.00 | 0.00 | 0.00 | 60 | 1023.8 |
| 20260906034229 | 73 | 100 | 1.0 | 1.0 | 0.00 | 0.00 | 0.00 | 58 | 1023.8 |
| 20260906033725 | 73 | 63 | 1.0 | 1.0 | 0.00 | 0.00 | 0.00 | 57 | 1024.0 |
| 20260906033224 | 73 | 89 | 2.0 | 2.0 | 0.00 | 0.00 | 0.00 | 58 | 1023.8 |
| 20260906032721 | 73 | 59 | 3.0 | 5.0 | 0.00 | 0.00 | 0.00 | 58 | 1023.6 |
| 20260906032221 | 74 | 72 | 1.0 | 1.0 | 0.00 | 0.00 | 0.00 | 58 | 1023.5 |
| 20260906031716 | 74 | 51 | 2.0 | 2.0 | 0.00 | 0.00 | 0.00 | 58 | 1023.5 |
| 20260906031212 | 74 | 87 | 3.0 | 6.0 | 0.00 | 0.00 | 0.00 | 58 | 1023.5 |
| 20260906030711 | 74 | 69 | 1.0 | 1.0 | 0.00 | 0.00 | 0.00 | 57 | 1023.2 |
| 20260906030206 | 74 | 103 | 3.0 | 3.0 | 0.00 | 0.00 | 0.00 | 57 | 1023.2 |
| 20260906025706 | 75 | 74 | 1.0 | 3.0 | 0.00 | 0.00 | 0.00 | 56 | 1023.0 |
| 20260906025201 | 75 | 57 | 3.0 | 5.0 | 0.00 | 0.00 | 0.00 | 55 | 1022.9 |
| 20260906024659 | 76 | 77 | 2.0 | 5.0 | 0.00 | 0.00 | 0.00 | 54 | 1022.8 |
| 20260906024159 | 75 | 132 | 2.0 | 3.0 | 0.00 | 0.00 | 0.00 | 55 | 1022.4 |
| 20260906023655 | 76 | 70 | 4.0 | 5.0 | 0.00 | 0.00 | 0.00 | 55 | 1022.7 |
| 20260906023155 | 76 | 78 | 3.0 | 3.0 | 0.00 | 0.00 | 0.00 | 56 | 1022.4 |
| 20260906022650 | 76 | 71 | 3.0 | 3.0 | 0.00 | 0.00 | 0.00 | 55 | 1022.6 |
| 20260906022146 | 77 | 39 | 3.0 | 6.0 | 0.00 | 0.00 | 0.00 | 54 | 1022.4 |
| 20260906021641 | 77 | 88 | 5.0 | 9.0 | 0.00 | 0.00 | 0.00 | 53 | 1022.2 |
| 20260906021140 | 78 | 88 | 4.0 | 7.0 | 0.00 | 0.00 | 0.00 | 52 | 1022.2 |
| 20260906020635 | 78 | 65 | 6.0 | 7.0 | 0.00 | 0.00 | 0.00 | 52 | 1022.2 |
| 20260906020130 | 79 | 52 | 5.0 | 7.0 | 0.00 | 0.00 | 0.00 | 51 | 1021.7 |
| 20260906015630 | 79 | 94 | 9.0 | 10.0 | 0.00 | 0.00 | 0.00 | 50 | 1022.1 |
| 20260906015128 | 80 | 39 | 6.0 | 8.0 | 0.00 | 0.00 | 0.00 | 46 | 1021.9 |
| 20260906014623 | 80 | 95 | 3.0 | 6.0 | 0.00 | 0.00 | 0.00 | 37 | 1021.7 |
| 20260906014119 | 80 | 85 | 2.0 | 2.0 | 0.00 | 0.00 | 0.00 | 37 | 1021.6 |
| 20260906013614 | 82 | 54 | 1.0 | 1.0 | 0.00 | 0.00 | 0.00 | 37 | 1021.6 |
| 20260906013110 | 83 | 40 | 1.0 | 1.0 | 0.00 | 0.00 | 0.00 | 35 | 1021.6 |
| 20260906012604 | 84 | 78 | 2.0 | 3.0 | 0.00 | 0.00 | 0.00 | 33 | 1021.7 |
| 20260906012059 | 84 | 331 | 2.0 | 2.0 | 0.00 | 0.00 | 0.00 | 33 | 1021.6 |
| 20260906011555 | 84 | 282 | 1.0 | 1.0 | 0.00 | 0.00 | 0.00 | 33 | 1021.4 |
| 20260906011054 | 84 | 318 | 1.0 | 1.0 | 0.00 | 0.00 | 0.00 | 32 | 1021.5 |
| 20260906010550 | 85 | 300 | 1.0 | 1.0 | 0.00 | 0.00 | 0.00 | 32 | 1021.5 |
| 20260906010046 | 86 | 306 | 3.0 | 3.0 | 0.00 | 0.00 | 0.00 | 30 | 1021.6 |
| 20260906005545 | 87 | 326 | 3.0 | 3.0 | 0.00 | 0.00 | 0.00 | 30 | 1021.7 |
| 20260906005044 | 87 | 304 | 2.0 | 2.0 | 0.00 | 0.00 | 0.00 | 31 | 1021.7 |
| 20260906004544 | 87 | 302 | 3.0 | 3.0 | 0.00 | 0.00 | 0.00 | 29 | 1021.7 |
| 20260906004039 | 87 | 312 | 2.0 | 2.0 | 0.00 | 0.00 | 0.00 | 29 | 1022.0 |
| 20260906003534 | 87 | 310 | 1.0 | 1.0 | 0.00 | 0.00 | 0.00 | 29 | 1022.0 |
| 20260906003031 | 87 | 311 | 2.0 | 2.0 | 0.00 | 0.00 | 0.00 | 29 | 1021.9 |
| 20260906002525 | 87 | 331 | 2.0 | 2.0 | 0.00 | 0.00 | 0.00 | 29 | 1022.0 |
| 20260906002020 | 87 | 324 | 3.0 | 3.0 | 0.00 | 0.00 | 0.00 | 29 | 1021.9 |
| 20260906001516 | 86 | 301 | 1.0 | 2.0 | 0.00 | 0.00 | 0.00 | 30 | 1022.0 |
| 20260906001010 | 86 | 313 | 2.0 | 2.0 | 0.00 | 0.00 | 0.00 | 30 | 1021.6 |
| 20260906000506 | 86 | 318 | 3.0 | 3.0 | 0.00 | 0.00 | 0.00 | 30 | 1021.6 |
| 20260906000000 | 86 | 283 | 1.0 | 1.0 | 0.00 | 0.00 | 0.00 | 30 | 1021.6 |
| 20260905235500 | 87 | 287 | 1.0 | 1.0 | 0.00 | 0.00 | 0.00 | 30 | 1021.9 |
| 20260905234955 | 87 | 294 | 2.0 | 2.0 | 0.00 | 0.00 | 0.00 | 29 | 1021.6 |
| 20260905234451 | 86 | 10 | 1.0 | 1.0 | 0.00 | 0.00 | 0.00 | 30 | 1021.6 |
| 20260905233950 | 86 | 216 | 0.0 | 0.0 | 0.00 | 0.00 | 0.00 | 29 | 1021.6 |
| 20260905233446 | 86 | 241 | 0.0 | 0.0 | 0.00 | 0.00 | 0.00 | 32 | 1021.7 |
| 20260905232944 | 86 | 25 | 0.0 | 0.0 | 0.00 | 0.00 | 0.00 | 31 | 1021.9 |
| 20260905232441 | 86 | 154 | 3.0 | 3.0 | 0.00 | 0.00 | 0.00 | 29 | 1021.4 |
| 20260905231936 | 88 | 43 | 2.0 | 2.0 | 0.00 | 0.00 | 0.00 | 27 | 1021.7 |
| 20260905231432 | 89 | 292 | 6.0 | 8.0 | 0.00 | 0.00 | 0.00 | 27 | 1021.4 |
| 20260905230928 | 91 | 260 | 1.0 | 1.0 | 0.00 | 0.00 | 0.00 | 26 | 1021.6 |
| 20260905230427 | 91 | 92 | 0.0 | 0.0 | 0.00 | 0.00 | 0.00 | 27 | 1021.6 |
| 20260905225925 | 91 | 259 | 0.0 | 0.0 | 0.00 | 0.00 | 0.00 | 26 | 1021.6 |
| 20260905225420 | 91 | 314 | 2.0 | 2.0 | 0.00 | 0.00 | 0.00 | 27 | 1021.6 |
| 20260905224915 | 90 | 289 | 1.0 | 2.0 | 0.00 | 0.00 | 0.00 | 26 | 1021.5 |
| 20260905224411 | 91 | 298 | 3.0 | 5.0 | 0.00 | 0.00 | 0.00 | 26 | 1021.4 |
| 20260905223911 | 91 | 15 | 6.0 | 7.0 | 0.00 | 0.00 | 0.00 | 25 | 1021.4 |
| 20260905223409 | 92 | 313 | 5.0 | 6.0 | 0.00 | 0.00 | 0.00 | 26 | 1021.4 |
| 20260905222909 | 92 | 63 | 1.0 | 1.0 | 0.00 | 0.00 | 0.00 | 27 | 1021.6 |
| 20260905222408 | 91 | 282 | 3.0 | 5.0 | 0.00 | 0.00 | 0.00 | 26 | 1021.7 |
| 20260905221904 | 91 | 312 | 4.0 | 5.0 | 0.00 | 0.00 | 0.00 | 26 | 1021.9 |
| 20260905221401 | 89 | 306 | 6.0 | 7.0 | 0.00 | 0.00 | 0.00 | 27 | 1021.9 |
| 20260905220856 | 89 | 234 | 6.0 | 10.0 | 0.00 | 0.00 | 0.00 | 29 | 1022.0 |
| 20260905220352 | 89 | 332 | 3.0 | 5.0 | 0.00 | 0.00 | 0.00 | 27 | 1021.9 |
| 20260905215851 | 89 | 44 | 3.0 | 5.0 | 0.00 | 0.00 | 0.00 | 28 | 1021.9 |
| 20260905215347 | 88 | 312 | 2.0 | 2.0 | 0.00 | 0.00 | 0.00 | 28 | 1021.7 |
| 20260905214843 | 88 | 307 | 7.0 | 9.0 | 0.00 | 0.00 | 0.00 | 28 | 1022.0 |
| 20260905214338 | 88 | 335 | 3.0 | 3.0 | 0.00 | 0.00 | 0.00 | 28 | 1021.9 |
| 20260905213833 | 89 | 238 | 1.0 | 2.0 | 0.00 | 0.00 | 0.00 | 28 | 1021.9 |
| 20260905213330 | 90 | 334 | 2.0 | 3.0 | 0.00 | 0.00 | 0.00 | 27 | 1021.7 |
| 20260905212830 | 90 | 327 | 5.0 | 6.0 | 0.00 | 0.00 | 0.00 | 27 | 1021.9 |
| 20260905212330 | 90 | 339 | 3.0 | 3.0 | 0.00 | 0.00 | 0.00 | 27 | 1021.7 |
| 20260905211824 | 91 | 70 | 5.0 | 9.0 | 0.00 | 0.00 | 0.00 | 27 | 1021.6 |